Flight Track Log - Related Links

Times and Time Zones

All times are in EDT time to prevent confusion due to time zone crossing. See the SWA448 flight status page for this flight to view local times or setup timezone preferences in your user account.

Time Position Orientation Groundspeed Altitude Reporting Facility
EDT Latitude Longitude Course Direction KTS MPH feet Rate Location/Type
Wed 04:11:16 PM 41.8167 -87.7500 255° West 187 215 2,100  Level Chicago TRACON
Wed 04:12:16 PM 41.8000 -87.8333 255° West 237 273 3,000 474 Climbing Chicago TRACON
Wed 04:13:10 PM 41.7850 -87.8936 252° West 237 273 3,000  Level Chicago Center
Wed 04:14:12 PM 41.7611 -87.9744 248° West 236 272 3,000 339 Level Chicago Center
Wed 04:15:14 PM 41.7308 -88.0792 249° West 246 283 3,700 677 Climbing Chicago Center
Wed 04:16:16 PM 41.7633 -88.1667 296° West 267 307 4,400 2,304 Climbing Chicago Center
Wed 04:17:19 PM 41.7997 -88.2497 300° West 268 308 8,500 3,504 Climbing Chicago Center
Wed 04:18:21 PM 41.7972 -88.3522 268° West 277 319 11,700 2,081 Climbing Chicago Center
Wed 04:19:23 PM 41.7864 -88.4861 264° West 301 346 12,800 1,935 Climbing Chicago Center
Wed 04:20:25 PM 41.7858 -88.6172 270° West 351 404 15,700 2,661 Climbing Chicago Center
Wed 04:21:27 PM 41.7881 -88.7550 271° West 368 423 18,300 2,468 Climbing Chicago Center
Wed 04:22:29 PM 41.7914 -88.8975 272° West 382 440 20,800 2,419 Climbing Chicago Center
Wed 04:23:31 PM 41.7942 -89.0461 271° West 401 461 23,300 2,274 Climbing Chicago Center
Wed 04:24:33 PM 41.8000 -89.2286 273° West 411 473 25,500 1,984 Climbing Chicago Center
Wed 04:25:35 PM 41.8017 -89.3883 271° West 426 490 27,400 1,790 Climbing Chicago Center
Wed 04:26:37 PM 41.7967 -89.5506 268° West 436 502 29,200 1,935 Climbing Chicago Center
Wed 04:27:39 PM 41.7906 -89.7044 267° West 440 506 31,400 2,371 Climbing Chicago Center
Wed 04:28:41 PM 41.7781 -89.8906 265° West 426 490 34,100 1,728 Climbing Chicago Center
Wed 04:29:44 PM 41.7683 -90.0408 265° West 413 475 35,000 1,200 Climbing Chicago Center
Wed 04:30:46 PM 41.7533 -90.1914 262° West 410 472 36,600 1,161 Climbing Chicago Center
Wed 04:31:48 PM 41.7369 -90.3433 262° West 414 476 37,400 677 Climbing Chicago Center
Wed 04:32:50 PM 41.7200 -90.4947 262° West 414 476 38,000 290 Climbing Chicago Center
Wed 04:33:52 PM 41.7039 -90.6489 262° West 412 474 38,000  Level Chicago Center
Wed 04:34:54 PM 41.6856 -90.8297 262° West 412 474 38,000  Level Chicago Center
Wed 04:35:56 PM 41.6694 -90.9842 262° West 417 480 38,000  Level Chicago Center
Wed 04:36:58 PM 41.6508 -91.1389 261° West 421 484 38,000  Level Chicago Center
Wed 04:38:00 PM 41.6344 -91.2933 262° West 422 486 38,000  Level Chicago Center
Wed 04:39:02 PM 41.6167 -91.4506 261° West 425 489 38,000  Level Chicago Center
Wed 04:40:04 PM 41.5994 -91.6067 262° West 427 491 38,000  Level Chicago Center
Wed 04:41:06 PM 41.5775 -91.7964 261° West 432 497 38,000  Level Chicago Center
Wed 04:42:08 PM 41.5586 -91.9503 261° West 427 491 38,000 432 Level Chicago Center
Wed 04:43:11 PM 41.5408 -92.1086 262° West 430 495 38,900 960 Climbing Chicago Center
Wed 04:44:13 PM 41.5225 -92.2592 261° West 418 481 40,000 532 Climbing Chicago Center
Wed 04:45:15 PM 41.5053 -92.4050 261° West 405 466 40,000  Level Chicago Center
Wed 04:46:17 PM 41.4844 -92.5722 261° West 400 460 40,000  Level Chicago Center
Wed 04:47:19 PM 41.4669 -92.7161 261° West 398 458 40,000  Level Chicago Center
Wed 04:48:21 PM 41.4481 -92.8592 260° West 396 456 40,000  Level Chicago Center
Wed 04:49:23 PM 41.4269 -93.0303 261° West 395 455 40,000  Level Chicago Center
Wed 04:50:25 PM 41.4083 -93.1733 260° West 396 456 40,000  Level Chicago Center
Wed 04:51:27 PM 41.3906 -93.3153 261° West 394 453 40,000  Level Chicago Center
Wed 04:52:29 PM 41.3719 -93.4589 260° West 396 456 40,000  Level Chicago Center
Wed 04:53:31 PM 41.3531 -93.6019 260° West 397 457 40,000  Level Chicago Center
Wed 04:54:33 PM 41.3300 -93.7725 260° West 395 455 40,000  Level Chicago Center
Wed 04:55:36 PM 41.3100 -93.9161 260° West 399 459 40,000  Level Chicago Center
Wed 04:56:38 PM 41.2911 -94.0597 260° West 400 460 40,000  Level Chicago Center
Wed 04:57:40 PM 41.2722 -94.2047 260° West 403 464 40,000  Level Chicago Center
Wed 04:58:42 PM 41.2461 -94.3797 259° West 405 466 40,000  Level Chicago Center
Wed 04:59:44 PM 41.2267 -94.5269 260° West 409 471 40,000  Level Chicago Center
Wed 05:01:12 PM 41.1981 -94.7283 259° West 406 467 40,000  Level Minneapolis Center
Wed 05:02:14 PM 41.1767 -94.8753 259° West 406 467 40,000  Level Minneapolis Center
Wed 05:03:17 PM 41.1508 -95.0553 259° West 411 473 40,000  Level Minneapolis Center
Wed 05:04:19 PM 41.1289 -95.2039 259° West 413 475 40,000  Level Minneapolis Center
Wed 05:05:21 PM 41.1067 -95.3519 259° West 410 472 40,000  Level Minneapolis Center
Wed 05:06:23 PM 41.0836 -95.4994 258° West 409 471 40,000  Level Minneapolis Center
Wed 05:07:25 PM 41.0608 -95.6461 258° West 407 468 40,000  Level Minneapolis Center
Wed 05:08:27 PM 41.0386 -95.7919 259° West 403 464 40,000  Level Minneapolis Center
Wed 05:09:29 PM 41.0156 -95.9400 258° West 404 465 40,000  Level Minneapolis Center
Wed 05:10:31 PM 40.9933 -96.0872 259° West 404 465 40,000  Level Minneapolis Center
Wed 05:11:33 PM 40.9667 -96.2631 259° West 404 465 40,000  Level Minneapolis Center
Wed 05:12:35 PM 40.9433 -96.4086 258° West 404 465 40,000  Level Minneapolis Center
Wed 05:13:37 PM 40.9206 -96.5550 258° West 404 465 40,000  Level Minneapolis Center
Wed 05:14:39 PM 40.8972 -96.7011 258° West 406 467 40,000  Level Minneapolis Center
Wed 05:15:42 PM 40.8728 -96.8469 258° West 405 466 40,000  Level Minneapolis Center
Wed 05:16:44 PM 40.8497 -96.9947 258° West 409 471 40,000  Level Minneapolis Center
Wed 05:17:46 PM 40.8247 -97.1425 257° West 410 472 40,000  Level Minneapolis Center
Wed 05:18:48 PM 40.7956 -97.3192 258° West 411 473 40,000  Level Minneapolis Center
Wed 05:19:50 PM 40.7708 -97.4611 257° West 410 472 40,000  Level Minneapolis Center
Wed 05:20:52 PM 40.7467 -97.6083 258° West 410 472 40,000  Level Minneapolis Center
Wed 05:21:54 PM 40.7214 -97.7550 257° West 410 472 40,000  Level Minneapolis Center
Wed 05:22:56 PM 40.6964 -97.9017 257° West 409 471 40,000  Level Minneapolis Center
Wed 05:23:58 PM 40.6803 -98.0508 262° West 415 478 40,000  Level Minneapolis Center
Wed 05:25:12 PM 40.6894 -98.2319 274° West 414 476 40,000  Level Minneapolis Center
Wed 05:26:15 PM 40.6969 -98.4139 273° West 413 475 40,000  Level Minneapolis Center
Wed 05:27:17 PM 40.7047 -98.5675 274° West 415 478 40,000  Level Minneapolis Center
Wed 05:28:19 PM 40.7117 -98.7214 273° West 416 479 40,000  Level Minneapolis Center
Wed 05:29:21 PM 40.7189 -98.8764 274° West 418 481 40,000  Level Minneapolis Center
Wed 05:30:23 PM 40.7264 -99.0319 274° West 421 484 40,000  Level Minneapolis Center
Wed 05:31:25 PM 40.7347 -99.2175 273° West 420 483 40,000  Level Minneapolis Center
Wed 05:32:27 PM 40.7408 -99.3714 273° West 418 481 40,000  Level Minneapolis Center
Wed 05:33:30 PM 40.7472 -99.5247 273° West 417 480 40,000  Level Minneapolis Center
Wed 05:34:32 PM 40.7533 -99.6778 273° West 417 480 40,000  Level Minneapolis Center
Wed 05:35:34 PM 40.7592 -99.8308 273° West 417 480 40,000  Level Minneapolis Center
Wed 05:36:48 PM 40.7656 -99.9811 273° West 413 475 40,000  Level Minneapolis Center
Wed 05:38:03 PM 40.7719 -100.2075 272° West 409 471 40,000  Level Denver Center
Wed 05:39:05 PM 40.7761 -100.3500 272° West 408 470 40,000  Level Denver Center
Wed 05:40:07 PM 40.7578 -100.5161 262° West 414 476 40,000  Level Denver Center
Wed 05:41:09 PM 40.7344 -100.6603 258° West 412 474 40,000  Level Denver Center
Wed 05:42:11 PM 40.7081 -100.8339 259° West 422 486 40,000  Level Denver Center
Wed 05:43:13 PM 40.6867 -100.9786 259° West 418 481 40,000  Level Denver Center
Wed 05:44:15 PM 40.6647 -101.1219 259° West 416 479 40,000  Level Denver Center
Wed 05:45:17 PM 40.6389 -101.2881 258° West 415 478 40,000  Level Denver Center
Wed 05:46:19 PM 40.6167 -101.4294 258° West 413 475 40,000 -339 Level Denver Center
Wed 05:47:21 PM 40.5900 -101.5939 258° West 411 473 39,300 -774 Descending Denver Center
Wed 05:48:23 PM 40.5664 -101.7378 258° West 420 483 38,400 -968 Descending Denver Center
Wed 05:49:25 PM 40.5392 -101.9072 258° West 424 488 37,300 -968 Descending Denver Center
Wed 05:50:27 PM 40.5139 -102.0539 257° West 429 494 36,400 -968 Descending Denver Center
Wed 05:51:29 PM 40.4858 -102.2233 258° West 426 490 35,300 -968 Descending Denver Center
Wed 05:52:31 PM 40.4597 -102.3706 257° West 431 496 34,400 -968 Descending Denver Center
Wed 05:53:33 PM 40.4319 -102.5397 258° West 427 491 33,300 -912 Descending Denver Center
Wed 05:54:36 PM 40.4078 -102.6781 257° West 425 489 32,500 -624 Descending Denver Center
Wed 05:55:38 PM 40.3811 -102.8317 257° West 432 497 32,000 -339 Descending Denver Center
Wed 05:56:40 PM 40.3497 -103.0144 257° West 431 496 31,800 -1,645 Descending Denver Center
Wed 05:57:42 PM 40.3231 -103.1703 257° West 439 505 28,600 -2,855 Descending Denver Center
Wed 05:58:44 PM 40.2967 -103.3222 257° West 432 497 25,900 -2,565 Descending Denver Center
Wed 05:59:46 PM 40.2700 -103.4667 256° West 414 476 23,300 -2,468 Descending Denver Center
Wed 06:00:48 PM 40.2453 -103.6047 257° West 395 455 20,800 -2,177 Descending Denver Center
Wed 06:01:50 PM 40.2189 -103.7539 257° West 386 444 18,800 -1,452 Descending Denver Center
Wed 06:02:52 PM 40.2019 -103.8775 260° West 314 361 17,800 -1,258 Descending Denver Center
Wed 06:03:54 PM 40.2131 -103.9925 277° West 317 365 16,200 -1,597 Descending Denver Center
Wed 06:04:56 PM 40.2247 -104.1144 277° West 315 362 14,500 -1,597 Descending Denver Center
Wed 06:05:58 PM 40.2344 -104.2258 277° West 311 358 12,900 -1,306 Descending Denver Center
Wed 06:07:00 PM 40.2453 -104.3342 277° West 304 350 11,800 -1,403 Descending Denver Center
Wed 06:08:02 PM 40.2283 -104.4456 259° West 299 344 10,000 -1,355 Descending Denver Center
Wed 06:09:04 PM 40.1983 -104.5414 248° West 291 335 9,000 -1,065 Descending Denver Center
Wed 06:10:06 PM 40.1322 -104.5961 212° Southwest 262 302 7,800 -864 Descending Denver Center
Wed 06:11:09 PM 40.0739 -104.6303 204° Southwest 230 265 7,200 -384 Descending Denver Center
Wed 06:12:11 PM 40.0186 -104.6625 204° Southwest 203 234 7,000 -290 Descending Denver Center
Wed 06:13:13 PM 39.9719 -104.6861 201° Southwest 183 211 6,600 -581 Descending Denver Center
Wed 06:14:15 PM 39.9242 -104.6867 181° South 161 185 5,800 -629 Descending Denver Center
Wed 06:15:17 PM 39.8811 -104.6875 181° South 155 178 5,300 -484 Descending Denver Center
Wed 06:17:00 PM 39.8617 -104.6732 North  Level Estimated
Wed 06:24:00 PM 39.8617 -104.6732 North  Level Estimated
Wed 06:25:00 PM 39.8617 -104.6732 North  Level Estimated

Login

Don't have an account? Register now (free) for customized features, flight alerts, and more!